Cypress Inn, TN

2:34 AM CST en Enero 31, 2015 (GMT -0600)
Haleyville | Change Station
CLOSE
Current Station
Aeropuerto
Location: Haleyville,
Altura: 932 ft
Estaciones meteorológicas cercanas
Aviso en curso: Special Statement

Alt 932 ft 34.28 °N, 87.60 °W | Updated 38 minutes ago

Despejado
Despejado
24 ° F
Sensación térmica 24 ° F
N
0
Viento Variable Viento desde Norte
Gusts mph

Hoy
Alta -- | Baja -- ° F
--% Posibilidad de precipitaciones
Ayer
Alta -- | Baja -- ° F
Precip. -- pul
6:50 AM 5:18 PM
Gibosa creciente, 88% visible
Presión 30.41 pul
Visibilidad 10.0 Millas
Nubes
Punto de rocío 21 ° F
Humedad 88%
Precipitaciones 0.00 pul
Espesor de la nieve No disponible.
UV No disponible.
Polen 1.90 de una escala de 12
Calidad del aire No disponible.
Flu Activity No disponible.
METAR K1M4 310756Z AUTO 00000KT 10SM M04/M06 A3038 RMK AO2 T10441061 SLP296 $

More Conditions Fewer Conditions

Presión 30.41 pul
Visibilidad 10.0 Millas
Nubes
Punto de rocío 21 ° F
Humedad 88%
Precipitaciones 0.00 pul
Espesor de la nieve No disponible.
UV No disponible.
Polen 1.90 de una escala de 12
Calidad del aire No disponible.
Flu Activity No disponible.
METAR K1M4 310756Z AUTO 00000KT 10SM M04/M06 A3038 RMK AO2 T10441061 SLP296 $

More Conditions Fewer Conditions

10-Day Weather Forecast

Almanac

Astronomía

Jan. 31, 2015 Salida Puesta
Hora real
Crepúsculo civil
Crepúsculo náutico
Crepúsculo astronómico
Luna
Horas de luz
Horas de luz
Tomorrow will be .
, % of the Moon is Illuminated

Extremos de hoy

Máximos del estado Bajos del estado

Community

WunderPhotos

Upload Photos

1,792,021 ¡fotos cargadas!

WunderBlogs® & News

Nearby

Calidad del aire

  Calidad del aire Índice AQ Contaminante
Not available.

Grosos de nieve

Estación Profundido Altura

Actividad de terremotos

Ciudad Distance Mag. Tiempo y dato
Magnitud mínima muestra es 2,5.

Temperaturas de aguas costeras

Lugar Temperatura

Estaciones meteorológicas cercanas